sensor_id;sensor_type;location;lat;lon;timestamp;temperature;humidity
2226;DHT22;1119;48.288;8.726;2023-08-21T00:00:01;25.20;99.90
2226;DHT22;1119;48.288;8.726;2023-08-21T00:02:31;25.20;99.90
2226;DHT22;1119;48.288;8.726;2023-08-21T00:04:59;25.20;99.90
2226;DHT22;1119;48.288;8.726;2023-08-21T00:07:26;25.20;99.90
2226;DHT22;1119;48.288;8.726;2023-08-21T00:09:55;25.20;99.90
2226;DHT22;1119;48.288;8.726;2023-08-21T00:12:22;25.20;99.90
2226;DHT22;1119;48.288;8.726;2023-08-21T00:14:50;25.20;99.90
2226;DHT22;1119;48.288;8.726;2023-08-21T00:17:17;25.30;99.90
2226;DHT22;1119;48.288;8.726;2023-08-21T00:19:45;25.20;99.90
2226;DHT22;1119;48.288;8.726;2023-08-21T00:22:12;25.30;99.90
2226;DHT22;1119;48.288;8.726;2023-08-21T00:24:40;25.30;99.90
2226;DHT22;1119;48.288;8.726;2023-08-21T00:27:09;25.20;99.90
2226;DHT22;1119;48.288;8.726;2023-08-21T00:29:36;25.20;99.90
2226;DHT22;1119;48.288;8.726;2023-08-21T00:32:05;25.20;99.90
2226;DHT22;1119;48.288;8.726;2023-08-21T00:34:33;25.10;99.90
2226;DHT22;1119;48.288;8.726;2023-08-21T00:37:00;25.00;99.90
2226;DHT22;1119;48.288;8.726;2023-08-21T00:39:28;24.90;99.90
2226;DHT22;1119;48.288;8.726;2023-08-21T00:41:56;25.00;99.90
2226;DHT22;1119;48.288;8.726;2023-08-21T00:44:24;24.90;99.90
2226;DHT22;1119;48.288;8.726;2023-08-21T00:46:52;24.90;99.90
2226;DHT22;1119;48.288;8.726;2023-08-21T00:49:20;24.90;99.90
2226;DHT22;1119;48.288;8.726;2023-08-21T00:51:49;24.90;99.90
2226;DHT22;1119;48.288;8.726;2023-08-21T00:54:17;24.90;99.90
2226;DHT22;1119;48.288;8.726;2023-08-21T00:56:46;24.90;99.90
2226;DHT22;1119;48.288;8.726;2023-08-21T00:59:18;24.90;99.90
2226;DHT22;1119;48.288;8.726;2023-08-21T01:01:47;24.90;99.90
2226;DHT22;1119;48.288;8.726;2023-08-21T01:04:16;24.90;99.90
2226;DHT22;1119;48.288;8.726;2023-08-21T01:06:43;25.00;99.90
2226;DHT22;1119;48.288;8.726;2023-08-21T01:09:16;25.00;99.90
2226;DHT22;1119;48.288;8.726;2023-08-21T01:11:53;25.10;99.90
2226;DHT22;1119;48.288;8.726;2023-08-21T01:14:28;25.10;99.90
2226;DHT22;1119;48.288;8.726;2023-08-21T01:17:00;25.10;99.90
2226;DHT22;1119;48.288;8.726;2023-08-21T01:19:35;25.10;99.90
2226;DHT22;1119;48.288;8.726;2023-08-21T01:22:03;25.10;99.90
2226;DHT22;1119;48.288;8.726;2023-08-21T01:24:32;25.10;99.90
2226;DHT22;1119;48.288;8.726;2023-08-21T01:27:00;25.10;99.90
2226;DHT22;1119;48.288;8.726;2023-08-21T01:29:28;25.10;99.90
2226;DHT22;1119;48.288;8.726;2023-08-21T01:32:01;25.10;99.90
2226;DHT22;1119;48.288;8.726;2023-08-21T01:34:42;25.10;99.90
2226;DHT22;1119;48.288;8.726;2023-08-21T01:37:10;25.00;99.90
2226;DHT22;1119;48.288;8.726;2023-08-21T01:39:40;25.00;99.90
2226;DHT22;1119;48.288;8.726;2023-08-21T01:42:08;25.00;99.90
2226;DHT22;1119;48.288;8.726;2023-08-21T01:44:35;24.90;99.90
2226;DHT22;1119;48.288;8.726;2023-08-21T01:47:03;24.90;99.90
2226;DHT22;1119;48.288;8.726;2023-08-21T01:49:30;24.80;99.90
2226;DHT22;1119;48.288;8.726;2023-08-21T01:51:58;24.70;99.90
2226;DHT22;1119;48.288;8.726;2023-08-21T01:54:25;24.80;99.90
2226;DHT22;1119;48.288;8.726;2023-08-21T01:56:54;24.80;99.90
2226;DHT22;1119;48.288;8.726;2023-08-21T01:59:23;24.80;99.90
2226;DHT22;1119;48.288;8.726;2023-08-21T02:01:51;24.80;99.90
2226;DHT22;1119;48.288;8.726;2023-08-21T02:04:19;24.70;99.90
2226;DHT22;1119;48.288;8.726;2023-08-21T02:06:47;24.80;99.90
2226;DHT22;1119;48.288;8.726;2023-08-21T02:09:14;24.70;99.90
2226;DHT22;1119;48.288;8.726;2023-08-21T02:11:41;24.70;99.90
2226;DHT22;1119;48.288;8.726;2023-08-21T02:14:10;24.70;99.90
2226;DHT22;1119;48.288;8.726;2023-08-21T02:16:37;24.60;99.90
2226;DHT22;1119;48.288;8.726;2023-08-21T02:19:06;24.50;99.90
2226;DHT22;1119;48.288;8.726;2023-08-21T02:21:34;24.40;99.90
2226;DHT22;1119;48.288;8.726;2023-08-21T02:24:03;24.40;99.90
2226;DHT22;1119;48.288;8.726;2023-08-21T02:26:31;24.40;99.90
2226;DHT22;1119;48.288;8.726;2023-08-21T02:28:58;24.40;99.90
2226;DHT22;1119;48.288;8.726;2023-08-21T02:31:27;24.40;99.90
2226;DHT22;1119;48.288;8.726;2023-08-21T02:33:55;24.30;99.90
2226;DHT22;1119;48.288;8.726;2023-08-21T02:36:22;24.30;99.90
2226;DHT22;1119;48.288;8.726;2023-08-21T02:38:50;24.30;99.90
2226;DHT22;1119;48.288;8.726;2023-08-21T02:41:18;24.30;99.90
2226;DHT22;1119;48.288;8.726;2023-08-21T02:43:45;24.30;99.90
2226;DHT22;1119;48.288;8.726;2023-08-21T02:46:14;24.40;99.90
2226;DHT22;1119;48.288;8.726;2023-08-21T02:48:44;24.40;99.90
2226;DHT22;1119;48.288;8.726;2023-08-21T02:51:11;24.30;99.90
2226;DHT22;1119;48.288;8.726;2023-08-21T02:53:39;24.10;99.90
2226;DHT22;1119;48.288;8.726;2023-08-21T02:56:07;24.00;99.90
2226;DHT22;1119;48.288;8.726;2023-08-21T02:58:34;24.00;99.90
2226;DHT22;1119;48.288;8.726;2023-08-21T03:01:02;24.00;99.90
2226;DHT22;1119;48.288;8.726;2023-08-21T03:03:29;23.90;99.90
2226;DHT22;1119;48.288;8.726;2023-08-21T03:05:59;23.80;99.90
2226;DHT22;1119;48.288;8.726;2023-08-21T03:08:27;23.80;99.90
2226;DHT22;1119;48.288;8.726;2023-08-21T03:10:54;23.80;99.90
2226;DHT22;1119;48.288;8.726;2023-08-21T03:13:21;23.80;99.90
2226;DHT22;1119;48.288;8.726;2023-08-21T03:15:49;23.80;99.90
2226;DHT22;1119;48.288;8.726;2023-08-21T03:18:16;23.90;99.90
2226;DHT22;1119;48.288;8.726;2023-08-21T03:20:44;24.00;99.90
2226;DHT22;1119;48.288;8.726;2023-08-21T03:23:13;24.00;99.90
2226;DHT22;1119;48.288;8.726;2023-08-21T03:25:41;24.10;99.90
2226;DHT22;1119;48.288;8.726;2023-08-21T03:28:09;24.10;99.90
2226;DHT22;1119;48.288;8.726;2023-08-21T03:30:39;24.10;99.90
2226;DHT22;1119;48.288;8.726;2023-08-21T03:33:06;24.20;99.90
2226;DHT22;1119;48.288;8.726;2023-08-21T03:35:34;24.30;99.90
2226;DHT22;1119;48.288;8.726;2023-08-21T03:38:02;24.30;99.90
2226;DHT22;1119;48.288;8.726;2023-08-21T03:40:39;24.30;99.90
2226;DHT22;1119;48.288;8.726;2023-08-21T03:43:06;24.20;99.90
2226;DHT22;1119;48.288;8.726;2023-08-21T03:45:33;24.30;99.90
2226;DHT22;1119;48.288;8.726;2023-08-21T03:48:04;24.30;99.90
2226;DHT22;1119;48.288;8.726;2023-08-21T03:50:32;24.20;99.90
2226;DHT22;1119;48.288;8.726;2023-08-21T03:52:59;24.20;99.90
2226;DHT22;1119;48.288;8.726;2023-08-21T03:55:26;24.20;99.90
2226;DHT22;1119;48.288;8.726;2023-08-21T03:57:55;24.10;99.90
2226;DHT22;1119;48.288;8.726;2023-08-21T04:00:22;24.00;99.90
2226;DHT22;1119;48.288;8.726;2023-08-21T04:02:50;24.00;99.90
2226;DHT22;1119;48.288;8.726;2023-08-21T04:05:17;23.80;99.90
2226;DHT22;1119;48.288;8.726;2023-08-21T04:07:45;23.60;99.90
2226;DHT22;1119;48.288;8.726;2023-08-21T04:10:12;23.60;99.90
2226;DHT22;1119;48.288;8.726;2023-08-21T04:12:39;23.60;99.90
2226;DHT22;1119;48.288;8.726;2023-08-21T04:15:09;23.70;99.90
2226;DHT22;1119;48.288;8.726;2023-08-21T04:17:37;23.70;99.90
2226;DHT22;1119;48.288;8.726;2023-08-21T04:20:05;23.60;99.90
2226;DHT22;1119;48.288;8.726;2023-08-21T04:22:34;23.40;99.90
2226;DHT22;1119;48.288;8.726;2023-08-21T04:25:02;23.40;99.90
2226;DHT22;1119;48.288;8.726;2023-08-21T04:27:29;23.40;99.90
2226;DHT22;1119;48.288;8.726;2023-08-21T04:29:57;23.40;99.90
2226;DHT22;1119;48.288;8.726;2023-08-21T04:32:27;23.30;99.90
2226;DHT22;1119;48.288;8.726;2023-08-21T04:34:54;23.20;99.90
2226;DHT22;1119;48.288;8.726;2023-08-21T04:37:22;23.20;99.90
2226;DHT22;1119;48.288;8.726;2023-08-21T04:39:51;23.20;99.90
2226;DHT22;1119;48.288;8.726;2023-08-21T04:42:18;23.30;99.90
2226;DHT22;1119;48.288;8.726;2023-08-21T04:44:46;23.40;99.90
2226;DHT22;1119;48.288;8.726;2023-08-21T04:47:19;23.40;99.90
2226;DHT22;1119;48.288;8.726;2023-08-21T04:49:50;23.50;99.90
2226;DHT22;1119;48.288;8.726;2023-08-21T04:52:18;23.60;99.90
2226;DHT22;1119;48.288;8.726;2023-08-21T04:54:47;23.60;99.90
2226;DHT22;1119;48.288;8.726;2023-08-21T04:57:15;23.80;99.90
2226;DHT22;1119;48.288;8.726;2023-08-21T04:59:43;23.90;99.90
2226;DHT22;1119;48.288;8.726;2023-08-21T05:02:11;24.00;99.90
2226;DHT22;1119;48.288;8.726;2023-08-21T05:04:39;24.10;99.90
2226;DHT22;1119;48.288;8.726;2023-08-21T05:07:10;24.00;99.90
2226;DHT22;1119;48.288;8.726;2023-08-21T05:09:37;24.00;99.90
2226;DHT22;1119;48.288;8.726;2023-08-21T05:12:08;24.00;99.90
2226;DHT22;1119;48.288;8.726;2023-08-21T05:14:35;24.00;99.90
2226;DHT22;1119;48.288;8.726;2023-08-21T05:17:03;24.00;99.90
2226;DHT22;1119;48.288;8.726;2023-08-21T05:19:30;24.00;99.90
2226;DHT22;1119;48.288;8.726;2023-08-21T05:21:58;24.00;99.90
2226;DHT22;1119;48.288;8.726;2023-08-21T05:24:27;24.00;99.90
2226;DHT22;1119;48.288;8.726;2023-08-21T05:27:01;23.90;99.90
2226;DHT22;1119;48.288;8.726;2023-08-21T05:29:30;23.80;99.90
2226;DHT22;1119;48.288;8.726;2023-08-21T05:31:58;23.70;99.90
2226;DHT22;1119;48.288;8.726;2023-08-21T05:34:25;23.70;99.90
2226;DHT22;1119;48.288;8.726;2023-08-21T05:36:53;23.60;99.90
2226;DHT22;1119;48.288;8.726;2023-08-21T05:39:21;23.60;99.90
2226;DHT22;1119;48.288;8.726;2023-08-21T05:41:50;23.70;99.90
2226;DHT22;1119;48.288;8.726;2023-08-21T05:44:19;23.80;99.90
2226;DHT22;1119;48.288;8.726;2023-08-21T05:46:46;24.10;99.90
2226;DHT22;1119;48.288;8.726;2023-08-21T05:49:15;24.30;99.90
2226;DHT22;1119;48.288;8.726;2023-08-21T05:51:42;24.50;99.90
2226;DHT22;1119;48.288;8.726;2023-08-21T05:54:10;24.70;99.90
2226;DHT22;1119;48.288;8.726;2023-08-21T05:56:39;24.90;99.90
2226;DHT22;1119;48.288;8.726;2023-08-21T05:59:10;25.20;99.90
2226;DHT22;1119;48.288;8.726;2023-08-21T06:01:38;25.30;99.90
2226;DHT22;1119;48.288;8.726;2023-08-21T06:04:05;25.50;99.90
2226;DHT22;1119;48.288;8.726;2023-08-21T06:06:48;25.60;99.90
2226;DHT22;1119;48.288;8.726;2023-08-21T06:09:15;25.80;99.90
2226;DHT22;1119;48.288;8.726;2023-08-21T06:11:44;26.40;99.90
2226;DHT22;1119;48.288;8.726;2023-08-21T06:14:12;27.30;98.50
2226;DHT22;1119;48.288;8.726;2023-08-21T06:16:40;28.60;95.70
2226;DHT22;1119;48.288;8.726;2023-08-21T06:19:11;29.80;93.40
2226;DHT22;1119;48.288;8.726;2023-08-21T06:21:39;31.00;91.10
2226;DHT22;1119;48.288;8.726;2023-08-21T06:24:06;32.10;86.30
2226;DHT22;1119;48.288;8.726;2023-08-21T06:26:34;33.00;81.40
2226;DHT22;1119;48.288;8.726;2023-08-21T06:29:01;33.90;77.80
2226;DHT22;1119;48.288;8.726;2023-08-21T06:31:30;34.60;74.30
2226;DHT22;1119;48.288;8.726;2023-08-21T06:33:58;35.30;69.60
2226;DHT22;1119;48.288;8.726;2023-08-21T06:36:25;35.90;67.50
2226;DHT22;1119;48.288;8.726;2023-08-21T06:38:53;36.40;62.40
2226;DHT22;1119;48.288;8.726;2023-08-21T06:41:20;36.70;60.10
2226;DHT22;1119;48.288;8.726;2023-08-21T06:43:49;36.60;59.50
2226;DHT22;1119;48.288;8.726;2023-08-21T06:46:18;36.80;59.60
2226;DHT22;1119;48.288;8.726;2023-08-21T06:48:47;37.00;57.90
2226;DHT22;1119;48.288;8.726;2023-08-21T06:51:16;37.20;58.00
2226;DHT22;1119;48.288;8.726;2023-08-21T06:53:43;37.30;56.60
2226;DHT22;1119;48.288;8.726;2023-08-21T06:56:11;37.40;56.00
2226;DHT22;1119;48.288;8.726;2023-08-21T06:58:38;37.30;55.60
2226;DHT22;1119;48.288;8.726;2023-08-21T07:01:06;37.30;55.20
2226;DHT22;1119;48.288;8.726;2023-08-21T07:03:33;37.50;55.10
2226;DHT22;1119;48.288;8.726;2023-08-21T07:06:02;37.50;54.70
2226;DHT22;1119;48.288;8.726;2023-08-21T07:08:29;37.70;54.00
2226;DHT22;1119;48.288;8.726;2023-08-21T07:10:57;37.90;54.20
2226;DHT22;1119;48.288;8.726;2023-08-21T07:13:24;38.10;53.80
2226;DHT22;1119;48.288;8.726;2023-08-21T07:15:53;38.30;53.50
2226;DHT22;1119;48.288;8.726;2023-08-21T07:18:21;38.60;52.60
2226;DHT22;1119;48.288;8.726;2023-08-21T07:20:52;38.70;52.30
2226;DHT22;1119;48.288;8.726;2023-08-21T07:23:21;38.70;52.30
2226;DHT22;1119;48.288;8.726;2023-08-21T07:25:48;38.90;51.70
2226;DHT22;1119;48.288;8.726;2023-08-21T07:28:16;38.80;51.80
2226;DHT22;1119;48.288;8.726;2023-08-21T07:30:43;38.70;51.70
2226;DHT22;1119;48.288;8.726;2023-08-21T07:33:11;38.70;51.60
2226;DHT22;1119;48.288;8.726;2023-08-21T07:35:38;38.30;52.80
2226;DHT22;1119;48.288;8.726;2023-08-21T07:38:06;38.10;52.60
2226;DHT22;1119;48.288;8.726;2023-08-21T07:40:34;37.80;53.10
2226;DHT22;1119;48.288;8.726;2023-08-21T07:43:02;37.70;53.30
2226;DHT22;1119;48.288;8.726;2023-08-21T07:45:30;37.40;53.90
2226;DHT22;1119;48.288;8.726;2023-08-21T07:47:58;37.30;53.90
2226;DHT22;1119;48.288;8.726;2023-08-21T07:50:25;37.30;54.60
2226;DHT22;1119;48.288;8.726;2023-08-21T07:52:52;37.50;53.20
2226;DHT22;1119;48.288;8.726;2023-08-21T07:55:20;37.60;53.20
2226;DHT22;1119;48.288;8.726;2023-08-21T07:57:48;37.20;54.00
2226;DHT22;1119;48.288;8.726;2023-08-21T08:00:16;37.00;53.20
2226;DHT22;1119;48.288;8.726;2023-08-21T08:02:43;36.90;54.20
2226;DHT22;1119;48.288;8.726;2023-08-21T08:05:11;36.50;54.50
2226;DHT22;1119;48.288;8.726;2023-08-21T08:07:38;35.80;55.30
2226;DHT22;1119;48.288;8.726;2023-08-21T08:10:06;35.70;56.30
2226;DHT22;1119;48.288;8.726;2023-08-21T08:12:34;35.50;56.30
2226;DHT22;1119;48.288;8.726;2023-08-21T08:15:03;35.10;57.00
2226;DHT22;1119;48.288;8.726;2023-08-21T08:17:31;34.80;58.10
2226;DHT22;1119;48.288;8.726;2023-08-21T08:19:58;34.60;57.80
2226;DHT22;1119;48.288;8.726;2023-08-21T08:22:25;34.60;58.00
2226;DHT22;1119;48.288;8.726;2023-08-21T08:24:53;34.80;58.00
2226;DHT22;1119;48.288;8.726;2023-08-21T08:27:20;34.90;57.40
2226;DHT22;1119;48.288;8.726;2023-08-21T08:29:47;34.80;57.70
2226;DHT22;1119;48.288;8.726;2023-08-21T08:32:17;34.70;58.20
2226;DHT22;1119;48.288;8.726;2023-08-21T08:34:44;34.60;57.70
2226;DHT22;1119;48.288;8.726;2023-08-21T08:37:12;34.70;57.90
2226;DHT22;1119;48.288;8.726;2023-08-21T08:39:40;34.80;58.40
2226;DHT22;1119;48.288;8.726;2023-08-21T08:42:08;34.70;59.10
2226;DHT22;1119;48.288;8.726;2023-08-21T08:44:35;34.60;59.20
2226;DHT22;1119;48.288;8.726;2023-08-21T08:47:04;34.60;59.10
2226;DHT22;1119;48.288;8.726;2023-08-21T08:49:33;34.30;58.50
2226;DHT22;1119;48.288;8.726;2023-08-21T08:52:01;34.00;59.40
2226;DHT22;1119;48.288;8.726;2023-08-21T08:54:30;33.90;60.10
2226;DHT22;1119;48.288;8.726;2023-08-21T08:56:58;33.70;59.40
2226;DHT22;1119;48.288;8.726;2023-08-21T08:59:25;33.60;61.20
2226;DHT22;1119;48.288;8.726;2023-08-21T09:01:53;33.50;61.10
2226;DHT22;1119;48.288;8.726;2023-08-21T09:04:21;33.30;62.40
2226;DHT22;1119;48.288;8.726;2023-08-21T09:06:50;33.30;62.40
2226;DHT22;1119;48.288;8.726;2023-08-21T09:09:17;33.10;62.80
2226;DHT22;1119;48.288;8.726;2023-08-21T09:11:46;33.00;62.30
2226;DHT22;1119;48.288;8.726;2023-08-21T09:14:15;32.40;62.50
2226;DHT22;1119;48.288;8.726;2023-08-21T09:16:59;32.00;64.30
2226;DHT22;1119;48.288;8.726;2023-08-21T09:19:29;31.80;65.70
2226;DHT22;1119;48.288;8.726;2023-08-21T09:21:58;31.70;67.10
2226;DHT22;1119;48.288;8.726;2023-08-21T09:24:25;31.50;66.50
2226;DHT22;1119;48.288;8.726;2023-08-21T09:26:52;31.20;67.10
2226;DHT22;1119;48.288;8.726;2023-08-21T09:29:20;31.10;68.50
2226;DHT22;1119;48.288;8.726;2023-08-21T09:31:47;30.90;69.10
2226;DHT22;1119;48.288;8.726;2023-08-21T09:34:14;30.90;68.60
2226;DHT22;1119;48.288;8.726;2023-08-21T09:36:42;31.10;69.80
2226;DHT22;1119;48.288;8.726;2023-08-21T09:39:15;31.10;67.70
2226;DHT22;1119;48.288;8.726;2023-08-21T09:41:55;31.00;67.10
2226;DHT22;1119;48.288;8.726;2023-08-21T09:44:23;31.20;68.90
2226;DHT22;1119;48.288;8.726;2023-08-21T09:46:50;31.40;68.80
2226;DHT22;1119;48.288;8.726;2023-08-21T09:49:18;31.60;68.90
2226;DHT22;1119;48.288;8.726;2023-08-21T09:51:47;31.60;68.50
2226;DHT22;1119;48.288;8.726;2023-08-21T09:54:16;31.50;67.90
2226;DHT22;1119;48.288;8.726;2023-08-21T09:57:02;31.60;68.70
2226;DHT22;1119;48.288;8.726;2023-08-21T09:59:30;31.70;68.50
2226;DHT22;1119;48.288;8.726;2023-08-21T10:01:59;31.60;69.10
2226;DHT22;1119;48.288;8.726;2023-08-21T10:04:28;31.80;70.00
2226;DHT22;1119;48.288;8.726;2023-08-21T10:06:58;31.80;69.10
2226;DHT22;1119;48.288;8.726;2023-08-21T10:09:30;31.70;66.90
2226;DHT22;1119;48.288;8.726;2023-08-21T10:11:58;31.80;67.50
2226;DHT22;1119;48.288;8.726;2023-08-21T10:14:26;31.80;68.20
2226;DHT22;1119;48.288;8.726;2023-08-21T10:16:54;31.80;65.90
2226;DHT22;1119;48.288;8.726;2023-08-21T10:19:22;31.90;66.10
2226;DHT22;1119;48.288;8.726;2023-08-21T10:21:49;32.00;65.30
2226;DHT22;1119;48.288;8.726;2023-08-21T10:24:27;31.80;63.90
2226;DHT22;1119;48.288;8.726;2023-08-21T10:26:59;31.90;64.30
2226;DHT22;1119;48.288;8.726;2023-08-21T10:29:27;31.80;64.80
2226;DHT22;1119;48.288;8.726;2023-08-21T10:32:01;31.60;66.20
2226;DHT22;1119;48.288;8.726;2023-08-21T10:34:33;31.50;65.30
2226;DHT22;1119;48.288;8.726;2023-08-21T10:37:05;31.60;66.50
2226;DHT22;1119;48.288;8.726;2023-08-21T10:39:36;31.80;65.50
2226;DHT22;1119;48.288;8.726;2023-08-21T10:42:08;31.70;65.60
2226;DHT22;1119;48.288;8.726;2023-08-21T10:44:50;31.70;65.60
2226;DHT22;1119;48.288;8.726;2023-08-21T10:47:22;31.80;63.70
2226;DHT22;1119;48.288;8.726;2023-08-21T10:49:52;32.00;64.00
2226;DHT22;1119;48.288;8.726;2023-08-21T10:52:22;32.30;63.60
2226;DHT22;1119;48.288;8.726;2023-08-21T10:54:52;32.50;64.40
2226;DHT22;1119;48.288;8.726;2023-08-21T10:57:22;32.50;64.60
2226;DHT22;1119;48.288;8.726;2023-08-21T10:59:54;32.30;63.20
2226;DHT22;1119;48.288;8.726;2023-08-21T11:02:23;32.40;63.10
2226;DHT22;1119;48.288;8.726;2023-08-21T11:04:51;32.40;64.40
2226;DHT22;1119;48.288;8.726;2023-08-21T11:07:19;32.20;61.80
2226;DHT22;1119;48.288;8.726;2023-08-21T11:09:47;32.00;61.80
2226;DHT22;1119;48.288;8.726;2023-08-21T11:12:16;32.20;63.00
2226;DHT22;1119;48.288;8.726;2023-08-21T11:14:46;32.30;61.70
2226;DHT22;1119;48.288;8.726;2023-08-21T11:17:13;32.40;61.90
2226;DHT22;1119;48.288;8.726;2023-08-21T11:19:41;32.70;61.10
2226;DHT22;1119;48.288;8.726;2023-08-21T11:22:10;32.80;62.80
2226;DHT22;1119;48.288;8.726;2023-08-21T11:24:42;32.90;60.40
2226;DHT22;1119;48.288;8.726;2023-08-21T11:27:12;32.70;62.10
2226;DHT22;1119;48.288;8.726;2023-08-21T11:29:42;32.30;62.40
2226;DHT22;1119;48.288;8.726;2023-08-21T11:32:13;32.00;64.30
2226;DHT22;1119;48.288;8.726;2023-08-21T11:34:41;31.80;64.20
2226;DHT22;1119;48.288;8.726;2023-08-21T11:37:10;31.90;65.10
2226;DHT22;1119;48.288;8.726;2023-08-21T11:39:45;32.20;64.60
2226;DHT22;1119;48.288;8.726;2023-08-21T11:42:14;32.50;63.90
2226;DHT22;1119;48.288;8.726;2023-08-21T11:44:44;32.60;63.90
2226;DHT22;1119;48.288;8.726;2023-08-21T11:47:16;32.60;63.50
2226;DHT22;1119;48.288;8.726;2023-08-21T11:49:45;32.60;62.70
2226;DHT22;1119;48.288;8.726;2023-08-21T11:52:18;32.70;61.80
2226;DHT22;1119;48.288;8.726;2023-08-21T11:54:48;33.00;60.70
2226;DHT22;1119;48.288;8.726;2023-08-21T11:57:20;33.10;60.90
2226;DHT22;1119;48.288;8.726;2023-08-21T11:59:52;32.60;63.30
2226;DHT22;1119;48.288;8.726;2023-08-21T12:02:24;32.30;63.70
2226;DHT22;1119;48.288;8.726;2023-08-21T12:04:52;32.10;63.60
2226;DHT22;1119;48.288;8.726;2023-08-21T12:07:20;32.00;63.70
2226;DHT22;1119;48.288;8.726;2023-08-21T12:09:48;32.40;62.30
2226;DHT22;1119;48.288;8.726;2023-08-21T12:12:16;32.80;60.90
2226;DHT22;1119;48.288;8.726;2023-08-21T12:14:43;33.00;59.80
2226;DHT22;1119;48.288;8.726;2023-08-21T12:17:12;33.30;59.90
2226;DHT22;1119;48.288;8.726;2023-08-21T12:19:42;33.40;59.70
2226;DHT22;1119;48.288;8.726;2023-08-21T12:22:11;33.60;59.80
2226;DHT22;1119;48.288;8.726;2023-08-21T12:24:40;33.90;58.60
2226;DHT22;1119;48.288;8.726;2023-08-21T12:27:08;34.00;57.00
2226;DHT22;1119;48.288;8.726;2023-08-21T12:29:36;34.20;57.80
2226;DHT22;1119;48.288;8.726;2023-08-21T12:32:03;34.40;57.40
2226;DHT22;1119;48.288;8.726;2023-08-21T12:34:31;34.50;56.20
2226;DHT22;1119;48.288;8.726;2023-08-21T12:37:00;34.70;55.10
2226;DHT22;1119;48.288;8.726;2023-08-21T12:39:27;34.50;54.10
2226;DHT22;1119;48.288;8.726;2023-08-21T12:41:55;34.40;54.70
2226;DHT22;1119;48.288;8.726;2023-08-21T12:44:24;34.50;55.30
2226;DHT22;1119;48.288;8.726;2023-08-21T12:46:52;34.70;55.00
2226;DHT22;1119;48.288;8.726;2023-08-21T12:49:21;34.90;54.90
2226;DHT22;1119;48.288;8.726;2023-08-21T12:51:49;35.20;54.30
2226;DHT22;1119;48.288;8.726;2023-08-21T12:54:18;35.30;53.30
2226;DHT22;1119;48.288;8.726;2023-08-21T12:56:45;35.10;53.80
2226;DHT22;1119;48.288;8.726;2023-08-21T12:59:13;35.10;53.20
2226;DHT22;1119;48.288;8.726;2023-08-21T13:01:40;35.00;54.10
2226;DHT22;1119;48.288;8.726;2023-08-21T13:04:08;34.70;54.40
2226;DHT22;1119;48.288;8.726;2023-08-21T13:06:36;34.20;55.90
2226;DHT22;1119;48.288;8.726;2023-08-21T13:09:04;33.90;55.30
2226;DHT22;1119;48.288;8.726;2023-08-21T13:11:34;33.20;56.80
2226;DHT22;1119;48.288;8.726;2023-08-21T13:14:01;32.80;58.20
2226;DHT22;1119;48.288;8.726;2023-08-21T13:16:29;32.40;58.40
2226;DHT22;1119;48.288;8.726;2023-08-21T13:18:56;32.20;59.50
2226;DHT22;1119;48.288;8.726;2023-08-21T13:21:24;32.00;58.30
2226;DHT22;1119;48.288;8.726;2023-08-21T13:23:51;32.00;59.30
2226;DHT22;1119;48.288;8.726;2023-08-21T13:26:19;32.00;59.30
2226;DHT22;1119;48.288;8.726;2023-08-21T13:28:49;32.00;58.70
2226;DHT22;1119;48.288;8.726;2023-08-21T13:31:18;32.00;58.10
2226;DHT22;1119;48.288;8.726;2023-08-21T13:33:46;32.10;58.70
2226;DHT22;1119;48.288;8.726;2023-08-21T13:36:14;32.10;59.10
2226;DHT22;1119;48.288;8.726;2023-08-21T13:38:42;32.00;58.70
2226;DHT22;1119;48.288;8.726;2023-08-21T13:41:10;31.90;58.90
2226;DHT22;1119;48.288;8.726;2023-08-21T13:43:37;31.90;59.10
2226;DHT22;1119;48.288;8.726;2023-08-21T13:46:06;31.80;58.80
2226;DHT22;1119;48.288;8.726;2023-08-21T13:48:34;31.70;59.90
2226;DHT22;1119;48.288;8.726;2023-08-21T13:51:01;31.80;61.90
2226;DHT22;1119;48.288;8.726;2023-08-21T13:53:29;31.80;62.40
2226;DHT22;1119;48.288;8.726;2023-08-21T13:55:56;31.80;62.60
2226;DHT22;1119;48.288;8.726;2023-08-21T13:58:23;31.90;62.80
2226;DHT22;1119;48.288;8.726;2023-08-21T14:00:51;31.90;59.50
2226;DHT22;1119;48.288;8.726;2023-08-21T14:03:19;32.00;60.40
2226;DHT22;1119;48.288;8.726;2023-08-21T14:05:47;32.10;58.70
2226;DHT22;1119;48.288;8.726;2023-08-21T14:08:14;32.20;58.00
2226;DHT22;1119;48.288;8.726;2023-08-21T14:10:42;32.20;58.20
2226;DHT22;1119;48.288;8.726;2023-08-21T14:13:09;32.30;59.80
2226;DHT22;1119;48.288;8.726;2023-08-21T14:15:37;32.40;59.70
2226;DHT22;1119;48.288;8.726;2023-08-21T14:18:05;32.50;58.80
2226;DHT22;1119;48.288;8.726;2023-08-21T14:20:34;32.50;59.50
2226;DHT22;1119;48.288;8.726;2023-08-21T14:23:02;32.50;59.30
2226;DHT22;1119;48.288;8.726;2023-08-21T14:25:29;32.50;58.20
2226;DHT22;1119;48.288;8.726;2023-08-21T14:27:57;32.50;57.80
2226;DHT22;1119;48.288;8.726;2023-08-21T14:30:24;32.60;58.30
2226;DHT22;1119;48.288;8.726;2023-08-21T14:32:52;32.80;58.00
2226;DHT22;1119;48.288;8.726;2023-08-21T14:35:19;32.80;59.00
2226;DHT22;1119;48.288;8.726;2023-08-21T14:37:48;32.80;58.60
2226;DHT22;1119;48.288;8.726;2023-08-21T14:40:15;32.60;59.70
2226;DHT22;1119;48.288;8.726;2023-08-21T14:42:42;32.50;59.00
2226;DHT22;1119;48.288;8.726;2023-08-21T14:45:10;32.60;58.10
2226;DHT22;1119;48.288;8.726;2023-08-21T14:47:37;32.70;57.50
2226;DHT22;1119;48.288;8.726;2023-08-21T14:50:06;32.80;57.20
2226;DHT22;1119;48.288;8.726;2023-08-21T14:52:33;32.80;56.30
2226;DHT22;1119;48.288;8.726;2023-08-21T14:55:02;32.80;56.80
2226;DHT22;1119;48.288;8.726;2023-08-21T14:57:30;32.70;57.60
2226;DHT22;1119;48.288;8.726;2023-08-21T14:59:57;32.60;57.60
2226;DHT22;1119;48.288;8.726;2023-08-21T15:02:25;32.60;57.70
2226;DHT22;1119;48.288;8.726;2023-08-21T15:04:52;32.60;57.20
2226;DHT22;1119;48.288;8.726;2023-08-21T15:07:19;32.60;57.10
2226;DHT22;1119;48.288;8.726;2023-08-21T15:09:47;32.80;56.60
2226;DHT22;1119;48.288;8.726;2023-08-21T15:12:15;32.80;56.40
2226;DHT22;1119;48.288;8.726;2023-08-21T15:14:43;32.90;56.70
2226;DHT22;1119;48.288;8.726;2023-08-21T15:17:10;32.90;57.00
2226;DHT22;1119;48.288;8.726;2023-08-21T15:19:37;33.10;56.00
2226;DHT22;1119;48.288;8.726;2023-08-21T15:22:04;33.10;55.70
2226;DHT22;1119;48.288;8.726;2023-08-21T15:24:32;33.10;55.90
2226;DHT22;1119;48.288;8.726;2023-08-21T15:26:59;33.10;56.40
2226;DHT22;1119;48.288;8.726;2023-08-21T15:29:28;33.10;56.20
2226;DHT22;1119;48.288;8.726;2023-08-21T15:31:55;33.00;56.40
2226;DHT22;1119;48.288;8.726;2023-08-21T15:34:23;32.90;57.10
2226;DHT22;1119;48.288;8.726;2023-08-21T15:36:50;32.80;56.50
2226;DHT22;1119;48.288;8.726;2023-08-21T15:39:18;32.60;56.90
2226;DHT22;1119;48.288;8.726;2023-08-21T15:41:45;32.40;57.20
2226;DHT22;1119;48.288;8.726;2023-08-21T15:44:12;32.30;57.70
2226;DHT22;1119;48.288;8.726;2023-08-21T15:46:42;32.20;57.90
2226;DHT22;1119;48.288;8.726;2023-08-21T15:49:09;32.20;58.50
2226;DHT22;1119;48.288;8.726;2023-08-21T15:51:38;32.20;57.30
2226;DHT22;1119;48.288;8.726;2023-08-21T15:54:06;32.20;58.60
2226;DHT22;1119;48.288;8.726;2023-08-21T15:56:34;32.20;58.50
2226;DHT22;1119;48.288;8.726;2023-08-21T15:59:01;32.30;58.20
2226;DHT22;1119;48.288;8.726;2023-08-21T16:01:28;32.30;58.90
2226;DHT22;1119;48.288;8.726;2023-08-21T16:03:57;32.30;58.80
2226;DHT22;1119;48.288;8.726;2023-08-21T16:06:24;32.30;58.70
2226;DHT22;1119;48.288;8.726;2023-08-21T16:08:52;32.30;58.20